sensor_id;sensor_type;location;lat;lon;timestamp;pressure;altitude;pressure_sealevel;temperature;humidity
61484;BME280;47349;55.640;37.692;2023-04-19T00:00:36;100117.19;;;11.12;43.56
61484;BME280;47349;55.640;37.692;2023-04-19T00:03:04;100120.75;;;11.12;43.55
61484;BME280;47349;55.640;37.692;2023-04-19T00:05:32;100123.75;;;11.17;43.61
61484;BME280;47349;55.640;37.692;2023-04-19T00:07:59;100127.59;;;11.15;43.50
61484;BME280;47349;55.640;37.692;2023-04-19T00:10:25;100127.09;;;11.11;43.33
61484;BME280;47349;55.640;37.692;2023-04-19T00:12:52;100126.94;;;11.13;44.17
61484;BME280;47349;55.640;37.692;2023-04-19T00:15:19;100130.78;;;11.10;44.02
61484;BME280;47349;55.640;37.692;2023-04-19T00:17:46;100121.72;;;11.11;43.05
61484;BME280;47349;55.640;37.692;2023-04-19T00:20:13;100120.38;;;11.07;43.10
61484;BME280;47349;55.640;37.692;2023-04-19T00:22:40;100131.47;;;11.04;44.25
61484;BME280;47349;55.640;37.692;2023-04-19T00:25:07;100128.28;;;11.00;43.61
61484;BME280;47349;55.640;37.692;2023-04-19T00:27:34;100130.13;;;11.00;43.89
61484;BME280;47349;55.640;37.692;2023-04-19T00:30:01;100122.22;;;10.82;43.45
61484;BME280;47349;55.640;37.692;2023-04-19T00:32:30;100120.41;;;10.74;44.27
61484;BME280;47349;55.640;37.692;2023-04-19T00:34:57;100122.72;;;10.77;44.64
61484;BME280;47349;55.640;37.692;2023-04-19T00:37:24;100126.59;;;10.75;43.97
61484;BME280;47349;55.640;37.692;2023-04-19T00:39:50;100123.75;;;10.76;44.96
61484;BME280;47349;55.640;37.692;2023-04-19T00:42:17;100125.75;;;10.74;43.88
61484;BME280;47349;55.640;37.692;2023-04-19T00:44:45;100130.28;;;10.74;44.62
61484;BME280;47349;55.640;37.692;2023-04-19T00:47:14;100134.31;;;10.70;44.54
61484;BME280;47349;55.640;37.692;2023-04-19T00:49:41;100127.41;;;10.67;44.90
61484;BME280;47349;55.640;37.692;2023-04-19T00:52:08;100136.13;;;10.61;44.51
61484;BME280;47349;55.640;37.692;2023-04-19T00:54:35;100133.28;;;10.71;44.82
61484;BME280;47349;55.640;37.692;2023-04-19T00:57:03;100141.00;;;10.66;44.35
61484;BME280;47349;55.640;37.692;2023-04-19T00:59:30;100141.81;;;10.66;44.09
61484;BME280;47349;55.640;37.692;2023-04-19T01:01:57;100141.47;;;10.61;44.39
61484;BME280;47349;55.640;37.692;2023-04-19T01:04:27;100141.81;;;10.58;44.25
61484;BME280;47349;55.640;37.692;2023-04-19T01:06:54;100136.09;;;10.45;44.10
61484;BME280;47349;55.640;37.692;2023-04-19T01:09:21;100143.78;;;10.40;44.38
61484;BME280;47349;55.640;37.692;2023-04-19T01:11:47;100145.25;;;10.34;44.85
61484;BME280;47349;55.640;37.692;2023-04-19T01:14:14;100147.09;;;10.25;44.86
61484;BME280;47349;55.640;37.692;2023-04-19T01:16:45;100142.41;;;10.27;45.30
61484;BME280;47349;55.640;37.692;2023-04-19T01:19:12;100142.34;;;10.19;45.50
61484;BME280;47349;55.640;37.692;2023-04-19T01:21:39;100144.34;;;10.17;44.77
61484;BME280;47349;55.640;37.692;2023-04-19T01:24:06;100138.69;;;10.20;45.21
61484;BME280;47349;55.640;37.692;2023-04-19T01:26:33;100140.50;;;10.20;45.13
61484;BME280;47349;55.640;37.692;2023-04-19T01:29:01;100147.38;;;10.22;45.75
61484;BME280;47349;55.640;37.692;2023-04-19T01:31:28;100143.06;;;10.29;45.86
61484;BME280;47349;55.640;37.692;2023-04-19T01:33:55;100140.41;;;10.38;45.13
61484;BME280;47349;55.640;37.692;2023-04-19T01:36:21;100138.78;;;10.45;45.43
61484;BME280;47349;55.640;37.692;2023-04-19T01:38:49;100138.91;;;10.43;45.87
61484;BME280;47349;55.640;37.692;2023-04-19T01:41:16;100135.59;;;10.41;45.72
61484;BME280;47349;55.640;37.692;2023-04-19T01:43:42;100138.91;;;10.43;45.81
61484;BME280;47349;55.640;37.692;2023-04-19T01:46:09;100144.09;;;10.37;45.47
61484;BME280;47349;55.640;37.692;2023-04-19T01:48:36;100143.94;;;10.38;45.79
61484;BME280;47349;55.640;37.692;2023-04-19T01:51:04;100143.78;;;10.40;46.09
61484;BME280;47349;55.640;37.692;2023-04-19T01:53:33;100134.22;;;10.37;45.61
61484;BME280;47349;55.640;37.692;2023-04-19T01:56:00;100134.22;;;10.37;46.08
61484;BME280;47349;55.640;37.692;2023-04-19T01:58:26;100137.06;;;10.36;45.91
61484;BME280;47349;55.640;37.692;2023-04-19T02:00:53;100134.06;;;10.31;45.83
61484;BME280;47349;55.640;37.692;2023-04-19T02:03:21;100137.22;;;10.26;46.12
61484;BME280;47349;55.640;37.692;2023-04-19T02:05:48;100136.38;;;10.25;45.75
61484;BME280;47349;55.640;37.692;2023-04-19T02:08:15;100132.31;;;10.21;45.80
61484;BME280;47349;55.640;37.692;2023-04-19T02:10:41;100131.03;;;10.25;46.29
61484;BME280;47349;55.640;37.692;2023-04-19T02:13:08;100139.72;;;10.27;46.32
61484;BME280;47349;55.640;37.692;2023-04-19T02:15:35;100132.13;;;10.23;46.60
61484;BME280;47349;55.640;37.692;2023-04-19T02:18:22;100136.38;;;10.25;46.32
61484;BME280;47349;55.640;37.692;2023-04-19T02:20:50;100127.44;;;10.17;46.14
61484;BME280;47349;55.640;37.692;2023-04-19T02:23:17;100137.31;;;10.16;45.71
61484;BME280;47349;55.640;37.692;2023-04-19T02:25:44;100135.25;;;10.10;45.43
61484;BME280;47349;55.640;37.692;2023-04-19T02:28:13;100138.75;;;10.02;45.87
61484;BME280;47349;55.640;37.692;2023-04-19T02:30:40;100145.56;;;9.89;46.42
61484;BME280;47349;55.640;37.692;2023-04-19T02:33:06;100151.28;;;9.94;46.81
61484;BME280;47349;55.640;37.692;2023-04-19T02:35:33;100152.09;;;9.94;46.81
61484;BME280;47349;55.640;37.692;2023-04-19T02:38:01;100148.91;;;9.91;46.75
61484;BME280;47349;55.640;37.692;2023-04-19T02:40:28;100153.22;;;9.84;45.76
61484;BME280;47349;55.640;37.692;2023-04-19T02:42:57;100159.72;;;9.81;46.31
61484;BME280;47349;55.640;37.692;2023-04-19T02:45:24;100152.56;;;9.82;46.00
61484;BME280;47349;55.640;37.692;2023-04-19T02:47:53;100150.91;;;9.89;46.21
61484;BME280;47349;55.640;37.692;2023-04-19T02:50:22;100148.25;;;9.89;46.41
61484;BME280;47349;55.640;37.692;2023-04-19T02:52:49;100147.56;;;9.87;45.70
61484;BME280;47349;55.640;37.692;2023-04-19T02:55:18;100145.56;;;9.89;46.52
61484;BME280;47349;55.640;37.692;2023-04-19T02:57:48;100146.94;;;9.93;47.13
61484;BME280;47349;55.640;37.692;2023-04-19T03:00:15;100143.91;;;9.96;45.83
61484;BME280;47349;55.640;37.692;2023-04-19T03:02:54;100150.63;;;10.00;45.79
61484;BME280;47349;55.640;37.692;2023-04-19T03:05:22;100146.63;;;10.04;45.90
61484;BME280;47349;55.640;37.692;2023-04-19T03:07:49;100151.63;;;9.99;46.05
61484;BME280;47349;55.640;37.692;2023-04-19T03:10:16;100154.47;;;9.97;46.37
61484;BME280;47349;55.640;37.692;2023-04-19T03:12:43;100140.91;;;9.99;45.69
61484;BME280;47349;55.640;37.692;2023-04-19T03:15:10;100151.97;;;10.04;46.50
61484;BME280;47349;55.640;37.692;2023-04-19T03:17:37;100148.94;;;9.99;45.72
61484;BME280;47349;55.640;37.692;2023-04-19T03:20:05;100150.09;;;9.88;46.20
61484;BME280;47349;55.640;37.692;2023-04-19T03:22:44;100160.25;;;9.85;45.94
61484;BME280;47349;55.640;37.692;2023-04-19T03:25:11;100157.22;;;9.79;46.58
61484;BME280;47349;55.640;37.692;2023-04-19T03:27:45;100159.38;;;9.76;45.81
61484;BME280;47349;55.640;37.692;2023-04-19T03:30:17;100158.41;;;9.77;46.60
61484;BME280;47349;55.640;37.692;2023-04-19T03:32:45;100156.38;;;9.79;46.05
61484;BME280;47349;55.640;37.692;2023-04-19T03:35:12;100153.66;;;9.71;46.24
61484;BME280;47349;55.640;37.692;2023-04-19T03:37:39;100153.75;;;9.61;46.38
61484;BME280;47349;55.640;37.692;2023-04-19T03:40:07;100162.69;;;9.70;46.61
61484;BME280;47349;55.640;37.692;2023-04-19T03:42:35;100165.72;;;9.75;46.94
61484;BME280;47349;55.640;37.692;2023-04-19T03:45:08;100165.94;;;9.82;46.84
61484;BME280;47349;55.640;37.692;2023-04-19T03:47:39;100165.97;;;9.90;45.88
61484;BME280;47349;55.640;37.692;2023-04-19T03:50:06;100172.03;;;9.92;46.28
61484;BME280;47349;55.640;37.692;2023-04-19T03:52:34;100165.53;;;10.02;46.25
61484;BME280;47349;55.640;37.692;2023-04-19T03:55:01;100168.53;;;9.99;46.33
61484;BME280;47349;55.640;37.692;2023-04-19T03:57:34;100169.72;;;10.05;46.29
61484;BME280;47349;55.640;37.692;2023-04-19T04:00:08;100167.25;;;10.12;45.55
61484;BME280;47349;55.640;37.692;2023-04-19T04:02:39;100169.47;;;10.16;45.24
61484;BME280;47349;55.640;37.692;2023-04-19T04:05:07;100169.78;;;10.13;45.74
61484;BME280;47349;55.640;37.692;2023-04-19T04:07:35;100173.00;;;9.91;46.17
61484;BME280;47349;55.640;37.692;2023-04-19T04:10:03;100176.16;;;9.86;46.56
61484;BME280;47349;55.640;37.692;2023-04-19T04:12:35;100165.31;;;9.88;46.50
61484;BME280;47349;55.640;37.692;2023-04-19T04:15:03;100181.69;;;9.85;46.31
61484;BME280;47349;55.640;37.692;2023-04-19T04:17:32;100168.19;;;9.94;46.35
61484;BME280;47349;55.640;37.692;2023-04-19T04:19:59;100168.34;;;9.93;46.18
61484;BME280;47349;55.640;37.692;2023-04-19T04:22:29;100175.69;;;9.91;46.61
61484;BME280;47349;55.640;37.692;2023-04-19T04:24:57;100172.75;;;10.02;46.21
61484;BME280;47349;55.640;37.692;2023-04-19T04:27:30;100176.13;;;10.12;46.46
61484;BME280;47349;55.640;37.692;2023-04-19T04:29:57;100172.22;;;10.33;46.21
61484;BME280;47349;55.640;37.692;2023-04-19T04:32:24;100173.94;;;10.42;46.39
61484;BME280;47349;55.640;37.692;2023-04-19T04:34:57;100172.47;;;10.55;45.71
61484;BME280;47349;55.640;37.692;2023-04-19T04:37:33;100175.66;;;10.67;45.79
61484;BME280;47349;55.640;37.692;2023-04-19T04:40:01;100174.50;;;10.78;45.47
61484;BME280;47349;55.640;37.692;2023-04-19T04:42:31;100178.25;;;10.93;45.63
61484;BME280;47349;55.640;37.692;2023-04-19T04:44:59;100176.72;;;10.99;45.81
61484;BME280;47349;55.640;37.692;2023-04-19T04:47:32;100183.09;;;11.06;45.24
61484;BME280;47349;55.640;37.692;2023-04-19T04:50:03;100182.59;;;11.11;44.02
61484;BME280;47349;55.640;37.692;2023-04-19T04:52:31;100182.75;;;11.25;44.32
61484;BME280;47349;55.640;37.692;2023-04-19T04:55:15;100182.59;;;11.35;44.33
61484;BME280;47349;55.640;37.692;2023-04-19T04:57:43;100183.59;;;11.50;44.17
61484;BME280;47349;55.640;37.692;2023-04-19T05:00:19;100187.59;;;11.71;44.22
61484;BME280;47349;55.640;37.692;2023-04-19T05:02:55;100185.41;;;11.82;43.41
61484;BME280;47349;55.640;37.692;2023-04-19T05:05:23;100183.72;;;11.81;43.36
61484;BME280;47349;55.640;37.692;2023-04-19T05:07:50;100176.81;;;11.79;43.32
61484;BME280;47349;55.640;37.692;2023-04-19T05:10:17;100182.88;;;11.89;43.27
61484;BME280;47349;55.640;37.692;2023-04-19T05:12:46;100189.78;;;11.83;43.91
61484;BME280;47349;55.640;37.692;2023-04-19T05:15:14;100192.66;;;11.82;43.20
61484;BME280;47349;55.640;37.692;2023-04-19T05:17:47;100189.75;;;11.92;43.43
61484;BME280;47349;55.640;37.692;2023-04-19T05:20:14;100194.59;;;12.04;42.96
61484;BME280;47349;55.640;37.692;2023-04-19T05:22:42;100197.13;;;12.06;43.12
61484;BME280;47349;55.640;37.692;2023-04-19T05:25:10;100204.84;;;12.09;43.11
61484;BME280;47349;55.640;37.692;2023-04-19T05:27:38;100208.28;;;12.26;42.66
61484;BME280;47349;55.640;37.692;2023-04-19T05:30:06;100207.91;;;12.37;42.90
61484;BME280;47349;55.640;37.692;2023-04-19T05:32:37;100211.22;;;12.47;42.56
61484;BME280;47349;55.640;37.692;2023-04-19T05:35:07;100198.94;;;12.53;42.42
61484;BME280;47349;55.640;37.692;2023-04-19T05:37:34;100202.41;;;12.61;42.24
61484;BME280;47349;55.640;37.692;2023-04-19T05:40:02;100197.53;;;12.65;42.27
61484;BME280;47349;55.640;37.692;2023-04-19T05:42:36;100204.22;;;12.69;41.89
61484;BME280;47349;55.640;37.692;2023-04-19T05:45:04;100196.13;;;12.77;41.98
61484;BME280;47349;55.640;37.692;2023-04-19T05:47:32;100199.47;;;12.79;41.76
61484;BME280;47349;55.640;37.692;2023-04-19T05:50:14;100204.78;;;12.88;41.17
61484;BME280;47349;55.640;37.692;2023-04-19T05:52:50;100204.66;;;12.81;41.15
61484;BME280;47349;55.640;37.692;2023-04-19T05:55:17;100190.84;;;12.84;41.01
61484;BME280;47349;55.640;37.692;2023-04-19T05:57:45;100199.22;;;12.89;41.24
61484;BME280;47349;55.640;37.692;2023-04-19T06:00:12;100205.09;;;12.93;40.73
61484;BME280;47349;55.640;37.692;2023-04-19T06:02:45;100209.75;;;12.99;40.78
61484;BME280;47349;55.640;37.692;2023-04-19T06:05:13;100207.56;;;13.02;40.85
61484;BME280;47349;55.640;37.692;2023-04-19T06:07:40;100212.41;;;13.07;40.95
61484;BME280;47349;55.640;37.692;2023-04-19T06:10:20;100210.66;;;13.14;40.79
61484;BME280;47349;55.640;37.692;2023-04-19T06:12:47;100211.97;;;13.26;40.38
61484;BME280;47349;55.640;37.692;2023-04-19T06:15:14;100211.91;;;13.34;40.64
61484;BME280;47349;55.640;37.692;2023-04-19T06:17:41;100217.38;;;13.41;40.25
61484;BME280;47349;55.640;37.692;2023-04-19T06:20:08;100213.13;;;13.47;39.65
61484;BME280;47349;55.640;37.692;2023-04-19T06:22:40;100222.03;;;13.47;39.58
61484;BME280;47349;55.640;37.692;2023-04-19T06:25:08;100217.13;;;13.51;39.63
61484;BME280;47349;55.640;37.692;2023-04-19T06:27:35;100219.00;;;13.50;39.52
61484;BME280;47349;55.640;37.692;2023-04-19T06:30:02;100221.50;;;13.52;40.03
61484;BME280;47349;55.640;37.692;2023-04-19T06:32:29;100216.06;;;13.60;39.88
61484;BME280;47349;55.640;37.692;2023-04-19T06:34:56;100211.97;;;13.64;40.01
61484;BME280;47349;55.640;37.692;2023-04-19T06:37:23;100215.59;;;13.71;39.18
61484;BME280;47349;55.640;37.692;2023-04-19T06:39:50;100216.91;;;13.75;38.91
61484;BME280;47349;55.640;37.692;2023-04-19T06:42:17;100216.56;;;13.78;38.69
61484;BME280;47349;55.640;37.692;2023-04-19T06:44:45;100224.53;;;13.86;38.42
61484;BME280;47349;55.640;37.692;2023-04-19T06:47:12;100219.44;;;13.92;38.08
61484;BME280;47349;55.640;37.692;2023-04-19T06:49:39;100213.03;;;13.93;37.53
61484;BME280;47349;55.640;37.692;2023-04-19T06:52:06;100212.66;;;13.96;37.27
61484;BME280;47349;55.640;37.692;2023-04-19T06:54:33;100212.66;;;13.96;37.53
61484;BME280;47349;55.640;37.692;2023-04-19T06:57:00;100206.06;;;13.98;37.46
61484;BME280;47349;55.640;37.692;2023-04-19T06:59:28;100217.97;;;14.04;37.60
61484;BME280;47349;55.640;37.692;2023-04-19T07:01:57;100214.53;;;13.95;37.36
61484;BME280;47349;55.640;37.692;2023-04-19T07:04:24;100210.72;;;14.04;37.19
61484;BME280;47349;55.640;37.692;2023-04-19T07:06:51;100217.69;;;13.99;36.73
61484;BME280;47349;55.640;37.692;2023-04-19T07:09:18;100214.78;;;13.85;37.38
61484;BME280;47349;55.640;37.692;2023-04-19T07:11:45;100205.13;;;13.91;37.94
61484;BME280;47349;55.640;37.692;2023-04-19T07:14:13;100208.03;;;14.04;37.21
61484;BME280;47349;55.640;37.692;2023-04-19T07:16:40;100211.56;;;14.20;37.15
61484;BME280;47349;55.640;37.692;2023-04-19T07:19:07;100205.69;;;14.31;36.25
61484;BME280;47349;55.640;37.692;2023-04-19T07:21:34;100207.81;;;14.35;36.13
61484;BME280;47349;55.640;37.692;2023-04-19T07:24:01;100198.53;;;14.23;35.36
61484;BME280;47349;55.640;37.692;2023-04-19T07:26:28;100204.09;;;14.07;35.78
61484;BME280;47349;55.640;37.692;2023-04-19T07:28:55;100206.72;;;14.15;36.21
61484;BME280;47349;55.640;37.692;2023-04-19T07:31:22;100202.34;;;14.29;36.12
61484;BME280;47349;55.640;37.692;2023-04-19T07:33:52;100198.72;;;14.36;35.90
61484;BME280;47349;55.640;37.692;2023-04-19T07:36:21;100204.56;;;14.40;35.68
61484;BME280;47349;55.640;37.692;2023-04-19T07:38:48;100204.00;;;14.30;35.39
61484;BME280;47349;55.640;37.692;2023-04-19T07:41:15;100200.47;;;14.44;35.88
61484;BME280;47349;55.640;37.692;2023-04-19T07:43:43;100205.13;;;14.50;35.10
61484;BME280;47349;55.640;37.692;2023-04-19T07:46:10;100207.53;;;14.60;35.23
61484;BME280;47349;55.640;37.692;2023-04-19T07:48:37;100196.75;;;14.60;35.28
61484;BME280;47349;55.640;37.692;2023-04-19T07:51:08;100201.19;;;14.68;36.25
61484;BME280;47349;55.640;37.692;2023-04-19T07:53:38;100212.72;;;14.76;35.73
61484;BME280;47349;55.640;37.692;2023-04-19T07:56:06;100214.34;;;14.92;35.29
61484;BME280;47349;55.640;37.692;2023-04-19T07:58:33;100213.66;;;15.05;35.67
61484;BME280;47349;55.640;37.692;2023-04-19T08:01:01;100211.47;;;15.15;34.93
61484;BME280;47349;55.640;37.692;2023-04-19T08:03:28;100206.78;;;15.24;34.77
61484;BME280;47349;55.640;37.692;2023-04-19T08:05:56;100210.97;;;15.26;34.03
61484;BME280;47349;55.640;37.692;2023-04-19T08:08:23;100210.59;;;15.29;34.40
61484;BME280;47349;55.640;37.692;2023-04-19T08:10:52;100208.50;;;15.31;33.64
61484;BME280;47349;55.640;37.692;2023-04-19T08:13:20;100209.34;;;15.32;33.43
61484;BME280;47349;55.640;37.692;2023-04-19T08:15:47;100203.94;;;15.32;33.46
61484;BME280;47349;55.640;37.692;2023-04-19T08:18:17;100202.06;;;15.32;33.73
61484;BME280;47349;55.640;37.692;2023-04-19T08:20:45;100198.63;;;15.38;33.54
61484;BME280;47349;55.640;37.692;2023-04-19T08:23:12;100199.50;;;15.46;33.67
61484;BME280;47349;55.640;37.692;2023-04-19T08:25:51;100209.13;;;15.55;32.86
61484;BME280;47349;55.640;37.692;2023-04-19T08:28:18;100198.88;;;15.43;32.80
61484;BME280;47349;55.640;37.692;2023-04-19T08:30:45;100199.50;;;15.46;32.52
61484;BME280;47349;55.640;37.692;2023-04-19T08:33:12;100203.34;;;15.58;32.64
61484;BME280;47349;55.640;37.692;2023-04-19T08:35:39;100200.66;;;15.58;32.55
61484;BME280;47349;55.640;37.692;2023-04-19T08:38:11;100198.25;;;15.70;32.41
61484;BME280;47349;55.640;37.692;2023-04-19T08:40:40;100190.84;;;15.57;31.88
61484;BME280;47349;55.640;37.692;2023-04-19T08:43:10;100196.00;;;15.73;32.21
61484;BME280;47349;55.640;37.692;2023-04-19T08:45:56;100199.81;;;15.57;30.78
61484;BME280;47349;55.640;37.692;2023-04-19T08:48:24;100196.03;;;15.30;30.78
61484;BME280;47349;55.640;37.692;2023-04-19T08:50:52;100198.75;;;15.30;30.92
61484;BME280;47349;55.640;37.692;2023-04-19T08:53:32;100192.97;;;15.33;31.44
61484;BME280;47349;55.640;37.692;2023-04-19T08:55:58;100192.06;;;15.48;30.81
61484;BME280;47349;55.640;37.692;2023-04-19T08:58:29;100195.84;;;15.53;31.08
61484;BME280;47349;55.640;37.692;2023-04-19T09:01:18;100182.75;;;15.57;30.39
61484;BME280;47349;55.640;37.692;2023-04-19T09:04:01;100188.75;;;15.52;30.49
61484;BME280;47349;55.640;37.692;2023-04-19T09:06:48;100182.31;;;15.53;30.38
61484;BME280;47349;55.640;37.692;2023-04-19T09:09:22;100187.53;;;15.55;31.29
61484;BME280;47349;55.640;37.692;2023-04-19T09:11:52;100180.59;;;15.67;31.71
61484;BME280;47349;55.640;37.692;2023-04-19T09:14:20;100179.41;;;15.76;30.59
61484;BME280;47349;55.640;37.692;2023-04-19T09:16:47;100178.25;;;15.92;30.34
61484;BME280;47349;55.640;37.692;2023-04-19T09:19:15;100165.00;;;15.97;30.54
61484;BME280;47349;55.640;37.692;2023-04-19T09:21:50;100178.28;;;15.99;30.24
61484;BME280;47349;55.640;37.692;2023-04-19T09:27:39;100166.53;;;16.19;29.98
61484;BME280;47349;55.640;37.692;2023-04-19T09:30:06;100173.81;;;16.19;29.84
61484;BME280;47349;55.640;37.692;2023-04-19T09:32:46;100161.78;;;16.22;30.20
61484;BME280;47349;55.640;37.692;2023-04-19T09:35:14;100157.88;;;16.31;30.09
61484;BME280;47349;55.640;37.692;2023-04-19T09:37:41;100168.31;;;16.40;29.80
61484;BME280;47349;55.640;37.692;2023-04-19T09:40:21;100155.22;;;16.44;29.96
61484;BME280;47349;55.640;37.692;2023-04-19T09:42:48;100160.00;;;16.42;30.13
61484;BME280;47349;55.640;37.692;2023-04-19T09:45:18;100161.69;;;16.50;30.38
61484;BME280;47349;55.640;37.692;2023-04-19T09:48:01;100147.34;;;16.56;30.52
61484;BME280;47349;55.640;37.692;2023-04-19T09:50:29;100158.56;;;16.53;29.76
61484;BME280;47349;55.640;37.692;2023-04-19T09:52:57;100154.66;;;16.62;30.05
61484;BME280;47349;55.640;37.692;2023-04-19T09:55:25;100152.81;;;16.69;29.91
61484;BME280;47349;55.640;37.692;2023-04-19T09:57:55;100154.03;;;16.66;29.78
61484;BME280;47349;55.640;37.692;2023-04-19T10:00:22;100150.00;;;16.36;29.43
61484;BME280;47349;55.640;37.692;2023-04-19T10:02:52;100134.16;;;16.33;29.94
61484;BME280;47349;55.640;37.692;2023-04-19T10:05:24;100146.19;;;16.24;29.99
61484;BME280;47349;55.640;37.692;2023-04-19T10:07:52;100150.97;;;16.28;29.73
61484;BME280;47349;55.640;37.692;2023-04-19T10:10:25;100146.84;;;16.32;31.17
61484;BME280;47349;55.640;37.692;2023-04-19T10:13:10;100147.75;;;16.46;30.39
61484;BME280;47349;55.640;37.692;2023-04-19T10:15:46;100145.66;;;16.48;30.26
61484;BME280;47349;55.640;37.692;2023-04-19T10:18:19;100140.69;;;16.58;29.70
61484;BME280;47349;55.640;37.692;2023-04-19T10:20:54;100148.09;;;16.30;29.38
61484;BME280;47349;55.640;37.692;2023-04-19T10:23:22;100131.44;;;16.26;30.26
61484;BME280;47349;55.640;37.692;2023-04-19T10:25:54;100130.22;;;16.35;30.38
61484;BME280;47349;55.640;37.692;2023-04-19T10:28:21;100131.06;;;16.42;30.06
61484;BME280;47349;55.640;37.692;2023-04-19T10:30:52;100127.50;;;16.35;30.63
61484;BME280;47349;55.640;37.692;2023-04-19T10:33:23;100138.50;;;16.27;30.09
61484;BME280;47349;55.640;37.692;2023-04-19T10:35:50;100137.13;;;16.44;30.72
61484;BME280;47349;55.640;37.692;2023-04-19T10:38:24;100135.03;;;16.47;30.01
61484;BME280;47349;55.640;37.692;2023-04-19T10:41:00;100124.44;;;16.45;30.25
61484;BME280;47349;55.640;37.692;2023-04-19T10:43:30;100120.84;;;16.31;30.34
61484;BME280;47349;55.640;37.692;2023-04-19T10:46:01;100124.00;;;16.41;30.59
61484;BME280;47349;55.640;37.692;2023-04-19T10:48:35;100121.28;;;16.48;30.29
61484;BME280;47349;55.640;37.692;2023-04-19T10:56:15;100118.31;;;17.11;30.10
61484;BME280;47349;55.640;37.692;2023-04-19T11:01:37;100112.09;;;17.37;29.77
61484;BME280;47349;55.640;37.692;2023-04-19T11:04:06;100104.78;;;17.51;29.54
61484;BME280;47349;55.640;37.692;2023-04-19T11:06:33;100105.81;;;17.43;30.03
61484;BME280;47349;55.640;37.692;2023-04-19T11:09:00;100102.06;;;17.51;29.44
61484;BME280;47349;55.640;37.692;2023-04-19T11:11:34;100102.06;;;17.51;29.29
61484;BME280;47349;55.640;37.692;2023-04-19T11:14:02;100106.84;;;17.62;30.02
61484;BME280;47349;55.640;37.692;2023-04-19T11:16:30;100093.47;;;17.67;29.00
61484;BME280;47349;55.640;37.692;2023-04-19T11:19:03;100095.59;;;17.65;28.83
61484;BME280;47349;55.640;37.692;2023-04-19T11:21:30;100098.28;;;17.71;29.03
61484;BME280;47349;55.640;37.692;2023-04-19T11:24:05;100088.94;;;17.47;28.98
61484;BME280;47349;55.640;37.692;2023-04-19T11:26:32;100082.47;;;17.35;29.24
61484;BME280;47349;55.640;37.692;2023-04-19T11:28:59;100092.06;;;17.44;29.31
61484;BME280;47349;55.640;37.692;2023-04-19T11:31:26;100089.13;;;17.66;29.32
61484;BME280;47349;55.640;37.692;2023-04-19T11:33:53;100077.41;;;17.85;28.63
61484;BME280;47349;55.640;37.692;2023-04-19T11:36:20;100072.38;;;17.89;28.10
61484;BME280;47349;55.640;37.692;2023-04-19T11:38:48;100077.94;;;18.14;27.75
61484;BME280;47349;55.640;37.692;2023-04-19T11:41:15;100077.34;;;18.05;27.67
61484;BME280;47349;55.640;37.692;2023-04-19T11:43:41;100073.13;;;18.16;27.48
61484;BME280;47349;55.640;37.692;2023-04-19T11:46:11;100075.88;;;18.09;27.58
61484;BME280;47349;55.640;37.692;2023-04-19T11:48:48;100068.94;;;18.52;27.61
61484;BME280;47349;55.640;37.692;2023-04-19T11:51:16;100076.38;;;18.31;27.76
61484;BME280;47349;55.640;37.692;2023-04-19T11:53:42;100075.41;;;18.57;27.97
61484;BME280;47349;55.640;37.692;2023-04-19T11:56:09;100077.47;;;18.93;26.64
61484;BME280;47349;55.640;37.692;2023-04-19T11:58:37;100071.28;;;18.86;26.71
61484;BME280;47349;55.640;37.692;2023-04-19T12:01:15;100068.94;;;18.52;26.57
61484;BME280;47349;55.640;37.692;2023-04-19T12:03:46;100079.59;;;18.15;26.94
61484;BME280;47349;55.640;37.692;2023-04-19T12:06:26;100076.13;;;17.94;26.91
61484;BME280;47349;55.640;37.692;2023-04-19T12:08:54;100069.22;;;18.43;26.76
61484;BME280;47349;55.640;37.692;2023-04-19T12:11:22;100065.84;;;18.86;26.50
61484;BME280;47349;55.640;37.692;2023-04-19T12:14:08;100064.28;;;19.22;26.25
61484;BME280;47349;55.640;37.692;2023-04-19T12:16:35;100064.47;;;19.45;25.48
61484;BME280;47349;55.640;37.692;2023-04-19T12:19:12;100062.19;;;19.42;25.63
61484;BME280;47349;55.640;37.692;2023-04-19T12:21:40;100059.53;;;19.61;25.14
61484;BME280;47349;55.640;37.692;2023-04-19T12:24:07;100063.56;;;19.51;25.32
61484;BME280;47349;55.640;37.692;2023-04-19T12:26:34;100059.47;;;19.42;25.46
61484;BME280;47349;55.640;37.692;2023-04-19T12:29:02;100060.97;;;19.38;25.40
61484;BME280;47349;55.640;37.692;2023-04-19T12:31:29;100049.91;;;19.40;25.37
61484;BME280;47349;55.640;37.692;2023-04-19T12:33:58;100039.69;;;19.35;25.40
61484;BME280;47349;55.640;37.692;2023-04-19T12:36:25;100056.03;;;19.54;25.13
61484;BME280;47349;55.640;37.692;2023-04-19T12:38:53;100043.13;;;19.67;25.13
61484;BME280;47349;55.640;37.692;2023-04-19T12:41:20;100047.59;;;18.93;25.32
61484;BME280;47349;55.640;37.692;2023-04-19T12:43:47;100050.97;;;18.89;25.21
61484;BME280;47349;55.640;37.692;2023-04-19T12:46:14;100047.75;;;19.23;25.36
61484;BME280;47349;55.640;37.692;2023-04-19T12:48:41;100056.31;;;19.45;25.20
61484;BME280;47349;55.640;37.692;2023-04-19T12:51:08;100041.75;;;19.40;25.24
61484;BME280;47349;55.640;37.692;2023-04-19T12:53:35;100037.25;;;19.70;24.68
61484;BME280;47349;55.640;37.692;2023-04-19T12:56:02;100034.31;;;19.72;24.67
61484;BME280;47349;55.640;37.692;2023-04-19T12:58:29;100033.84;;;19.75;24.76
61484;BME280;47349;55.640;37.692;2023-04-19T13:00:57;100032.94;;;19.99;24.40